sensor_id;sensor_type;location;lat;lon;timestamp;P1;durP1;ratioP1;P2;durP2;ratioP2
56593;SDS011;42474;51.660;5.824;2023-09-30T00:00:20;25.48;;;10.27;;
56593;SDS011;42474;51.660;5.824;2023-09-30T00:04:20;21.72;;;9.81;;
56593;SDS011;42474;51.660;5.824;2023-09-30T00:08:20;23.44;;;9.84;;
56593;SDS011;42474;51.660;5.824;2023-09-30T00:12:20;22.08;;;9.94;;
56593;SDS011;42474;51.660;5.824;2023-09-30T00:16:20;25.65;;;11.03;;
56593;SDS011;42474;51.660;5.824;2023-09-30T00:20:20;20.33;;;10.57;;
56593;SDS011;42474;51.660;5.824;2023-09-30T00:24:20;22.5;;;10.79;;
56593;SDS011;42474;51.660;5.824;2023-09-30T00:28:20;22.51;;;10.78;;
56593;SDS011;42474;51.660;5.824;2023-09-30T00:32:20;22.8;;;10.66;;
56593;SDS011;42474;51.660;5.824;2023-09-30T00:36:20;19.51;;;11.16;;
56593;SDS011;42474;51.660;5.824;2023-09-30T00:40:20;19.64;;;11.34;;
56593;SDS011;42474;51.660;5.824;2023-09-30T00:44:20;21.65;;;10.66;;
56593;SDS011;42474;51.660;5.824;2023-09-30T00:48:20;23.64;;;11.95;;
56593;SDS011;42474;51.660;5.824;2023-09-30T00:52:20;23.38;;;11.78;;
56593;SDS011;42474;51.660;5.824;2023-09-30T00:56:23;20.96;;;11.57;;
56593;SDS011;42474;51.660;5.824;2023-09-30T01:00:20;24.63;;;12.04;;
56593;SDS011;42474;51.660;5.824;2023-09-30T01:04:20;23.64;;;12.04;;
56593;SDS011;42474;51.660;5.824;2023-09-30T01:08:21;22.61;;;12.39;;
56593;SDS011;42474;51.660;5.824;2023-09-30T01:12:20;24.51;;;11.13;;
56593;SDS011;42474;51.660;5.824;2023-09-30T01:16:20;21.55;;;11.96;;
56593;SDS011;42474;51.660;5.824;2023-09-30T01:20:20;19.76;;;12.31;;
56593;SDS011;42474;51.660;5.824;2023-09-30T01:24:20;18.46;;;10.37;;
56593;SDS011;42474;51.660;5.824;2023-09-30T01:28:20;21.56;;;12.08;;
56593;SDS011;42474;51.660;5.824;2023-09-30T01:32:20;24.18;;;12.46;;
56593;SDS011;42474;51.660;5.824;2023-09-30T01:36:20;21.79;;;13.19;;
56593;SDS011;42474;51.660;5.824;2023-09-30T01:40:20;24.29;;;13.78;;
56593;SDS011;42474;51.660;5.824;2023-09-30T01:44:20;23.86;;;12.13;;
56593;SDS011;42474;51.660;5.824;2023-09-30T01:48:20;23.57;;;12.69;;
56593;SDS011;42474;51.660;5.824;2023-09-30T01:52:20;24.69;;;13.81;;
56593;SDS011;42474;51.660;5.824;2023-09-30T01:56:20;18.82;;;10.18;;
56593;SDS011;42474;51.660;5.824;2023-09-30T02:00:20;20.76;;;11.98;;
56593;SDS011;42474;51.660;5.824;2023-09-30T02:04:20;22.82;;;12.61;;
56593;SDS011;42474;51.660;5.824;2023-09-30T02:08:20;21.09;;;12.27;;
56593;SDS011;42474;51.660;5.824;2023-09-30T02:12:20;22.36;;;13.03;;
56593;SDS011;42474;51.660;5.824;2023-09-30T02:16:20;20.83;;;12.52;;
56593;SDS011;42474;51.660;5.824;2023-09-30T02:20:20;18.53;;;12.25;;
56593;SDS011;42474;51.660;5.824;2023-09-30T02:24:20;20.48;;;13.52;;
56593;SDS011;42474;51.660;5.824;2023-09-30T02:28:20;21.81;;;13.44;;
56593;SDS011;42474;51.660;5.824;2023-09-30T02:32:20;21.29;;;13.35;;
56593;SDS011;42474;51.660;5.824;2023-09-30T02:36:20;21.43;;;12.83;;
56593;SDS011;42474;51.660;5.824;2023-09-30T02:40:20;24.39;;;12.66;;
56593;SDS011;42474;51.660;5.824;2023-09-30T02:44:20;27.38;;;16.22;;
56593;SDS011;42474;51.660;5.824;2023-09-30T02:48:20;20.84;;;13.16;;
56593;SDS011;42474;51.660;5.824;2023-09-30T02:52:20;20.04;;;12.96;;
56593;SDS011;42474;51.660;5.824;2023-09-30T02:56:20;24.45;;;16.16;;
56593;SDS011;42474;51.660;5.824;2023-09-30T03:00:21;23.72;;;15.25;;
56593;SDS011;42474;51.660;5.824;2023-09-30T03:04:20;31.08;;;16.31;;
56593;SDS011;42474;51.660;5.824;2023-09-30T03:08:20;22.36;;;15.04;;
56593;SDS011;42474;51.660;5.824;2023-09-30T03:12:20;29.78;;;17.74;;
56593;SDS011;42474;51.660;5.824;2023-09-30T03:16:20;30.63;;;17.51;;
56593;SDS011;42474;51.660;5.824;2023-09-30T03:20:20;23.42;;;15.47;;
56593;SDS011;42474;51.660;5.824;2023-09-30T03:24:20;23.05;;;15.24;;
56593;SDS011;42474;51.660;5.824;2023-09-30T03:28:20;24.73;;;14.64;;
56593;SDS011;42474;51.660;5.824;2023-09-30T03:32:20;31.43;;;17.47;;
56593;SDS011;42474;51.660;5.824;2023-09-30T03:36:20;22.13;;;14.54;;
56593;SDS011;42474;51.660;5.824;2023-09-30T03:40:20;25.21;;;15.22;;
56593;SDS011;42474;51.660;5.824;2023-09-30T03:44:20;23.41;;;15.13;;
56593;SDS011;42474;51.660;5.824;2023-09-30T03:48:20;29.17;;;17.09;;
56593;SDS011;42474;51.660;5.824;2023-09-30T03:52:20;27.55;;;16.53;;
56593;SDS011;42474;51.660;5.824;2023-09-30T03:56:20;29.67;;;18.16;;
56593;SDS011;42474;51.660;5.824;2023-09-30T04:00:20;28.5;;;17.44;;
56593;SDS011;42474;51.660;5.824;2023-09-30T04:04:20;28.13;;;17.21;;
56593;SDS011;42474;51.660;5.824;2023-09-30T04:08:20;20.51;;;13.14;;
56593;SDS011;42474;51.660;5.824;2023-09-30T04:12:20;25.8;;;16.48;;
56593;SDS011;42474;51.660;5.824;2023-09-30T04:16:20;27.24;;;17.16;;
56593;SDS011;42474;51.660;5.824;2023-09-30T04:20:20;23.17;;;14.97;;
56593;SDS011;42474;51.660;5.824;2023-09-30T04:24:20;31.64;;;18.19;;
56593;SDS011;42474;51.660;5.824;2023-09-30T04:28:20;30.6;;;18.53;;
56593;SDS011;42474;51.660;5.824;2023-09-30T04:32:20;25.36;;;16.46;;
56593;SDS011;42474;51.660;5.824;2023-09-30T04:36:20;29.52;;;18.92;;
56593;SDS011;42474;51.660;5.824;2023-09-30T04:40:20;23.43;;;14.75;;
56593;SDS011;42474;51.660;5.824;2023-09-30T04:44:20;25.32;;;15.87;;
56593;SDS011;42474;51.660;5.824;2023-09-30T04:48:20;26.9;;;16.53;;
56593;SDS011;42474;51.660;5.824;2023-09-30T04:52:20;29.6;;;17.09;;
56593;SDS011;42474;51.660;5.824;2023-09-30T04:56:20;28.59;;;17.82;;
56593;SDS011;42474;51.660;5.824;2023-09-30T05:00:20;35.28;;;18.19;;
56593;SDS011;42474;51.660;5.824;2023-09-30T05:04:20;24.74;;;14.82;;
56593;SDS011;42474;51.660;5.824;2023-09-30T05:08:20;23.24;;;15.78;;
56593;SDS011;42474;51.660;5.824;2023-09-30T05:12:20;27.81;;;16.86;;
56593;SDS011;42474;51.660;5.824;2023-09-30T05:16:20;28.97;;;17.28;;
56593;SDS011;42474;51.660;5.824;2023-09-30T05:20:20;27.4;;;18.3;;
56593;SDS011;42474;51.660;5.824;2023-09-30T05:24:21;26.18;;;17.54;;
56593;SDS011;42474;51.660;5.824;2023-09-30T05:28:21;21.4;;;14.37;;
56593;SDS011;42474;51.660;5.824;2023-09-30T05:32:21;22.92;;;15.46;;
56593;SDS011;42474;51.660;5.824;2023-09-30T05:36:20;21.99;;;15.24;;
56593;SDS011;42474;51.660;5.824;2023-09-30T05:40:20;25.08;;;16.32;;
56593;SDS011;42474;51.660;5.824;2023-09-30T05:44:20;23.61;;;15.8;;
56593;SDS011;42474;51.660;5.824;2023-09-30T05:48:20;26.7;;;17.59;;
56593;SDS011;42474;51.660;5.824;2023-09-30T05:52:20;25.05;;;18.01;;
56593;SDS011;42474;51.660;5.824;2023-09-30T05:56:20;24.98;;;16.76;;
56593;SDS011;42474;51.660;5.824;2023-09-30T06:00:21;34;;;19.56;;
56593;SDS011;42474;51.660;5.824;2023-09-30T06:04:20;30.65;;;19.29;;
56593;SDS011;42474;51.660;5.824;2023-09-30T06:08:20;22.12;;;15.43;;
56593;SDS011;42474;51.660;5.824;2023-09-30T06:12:20;26.9;;;16.85;;
56593;SDS011;42474;51.660;5.824;2023-09-30T06:16:20;27.05;;;17.48;;
56593;SDS011;42474;51.660;5.824;2023-09-30T06:20:20;29.44;;;18.8;;
56593;SDS011;42474;51.660;5.824;2023-09-30T06:24:20;26.52;;;17.71;;
56593;SDS011;42474;51.660;5.824;2023-09-30T06:28:20;29.91;;;18.56;;
56593;SDS011;42474;51.660;5.824;2023-09-30T06:32:20;33.59;;;20.32;;
56593;SDS011;42474;51.660;5.824;2023-09-30T06:36:20;30.45;;;19.56;;
56593;SDS011;42474;51.660;5.824;2023-09-30T06:40:20;26.88;;;18.44;;
56593;SDS011;42474;51.660;5.824;2023-09-30T06:44:20;30.61;;;18.94;;
56593;SDS011;42474;51.660;5.824;2023-09-30T06:48:21;27.15;;;17.17;;
56593;SDS011;42474;51.660;5.824;2023-09-30T06:52:20;26.81;;;17.51;;
56593;SDS011;42474;51.660;5.824;2023-09-30T06:56:20;25.33;;;16.16;;
56593;SDS011;42474;51.660;5.824;2023-09-30T07:00:20;28.68;;;16.4;;
56593;SDS011;42474;51.660;5.824;2023-09-30T07:04:20;24.56;;;13.52;;
56593;SDS011;42474;51.660;5.824;2023-09-30T07:08:20;21.56;;;12.92;;
56593;SDS011;42474;51.660;5.824;2023-09-30T07:12:21;28.33;;;14.96;;
56593;SDS011;42474;51.660;5.824;2023-09-30T07:16:20;29.64;;;17;;
56593;SDS011;42474;51.660;5.824;2023-09-30T07:20:20;25.13;;;15.46;;
56593;SDS011;42474;51.660;5.824;2023-09-30T07:24:20;24.78;;;17.36;;
56593;SDS011;42474;51.660;5.824;2023-09-30T07:28:20;30.02;;;18.22;;
56593;SDS011;42474;51.660;5.824;2023-09-30T07:32:20;26.22;;;16.81;;
56593;SDS011;42474;51.660;5.824;2023-09-30T07:36:20;26.13;;;15;;
56593;SDS011;42474;51.660;5.824;2023-09-30T11:41:35;11.86;;;3.76;;
56593;SDS011;42474;51.660;5.824;2023-09-30T11:46:04;12.67;;;5.11;;
56593;SDS011;42474;51.660;5.824;2023-09-30T11:49:53;11.97;;;5.34;;
56593;SDS011;42474;51.660;5.824;2023-09-30T11:53:54;13.72;;;6.12;;
56593;SDS011;42474;51.660;5.824;2023-09-30T11:57:53;13.19;;;5.67;;
56593;SDS011;42474;51.660;5.824;2023-09-30T12:01:53;13.24;;;6.22;;
56593;SDS011;42474;51.660;5.824;2023-09-30T12:05:53;14.46;;;5.76;;
56593;SDS011;42474;51.660;5.824;2023-09-30T12:09:53;11.01;;;5.04;;
56593;SDS011;42474;51.660;5.824;2023-09-30T12:13:53;13.16;;;5.11;;
56593;SDS011;42474;51.660;5.824;2023-09-30T12:17:53;11.31;;;5.65;;
56593;SDS011;42474;51.660;5.824;2023-09-30T12:21:53;9.94;;;4.71;;
56593;SDS011;42474;51.660;5.824;2023-09-30T12:25:53;11.73;;;4.11;;
56593;SDS011;42474;51.660;5.824;2023-09-30T12:29:53;9.77;;;4.6;;
56593;SDS011;42474;51.660;5.824;2023-09-30T12:33:53;14.81;;;5.34;;
56593;SDS011;42474;51.660;5.824;2023-09-30T12:37:53;12.98;;;4.92;;
56593;SDS011;42474;51.660;5.824;2023-09-30T12:41:54;13.02;;;4.9;;
56593;SDS011;42474;51.660;5.824;2023-09-30T12:45:53;10.96;;;4.12;;
56593;SDS011;42474;51.660;5.824;2023-09-30T12:49:53;11.02;;;4.89;;
56593;SDS011;42474;51.660;5.824;2023-09-30T12:53:53;10.38;;;4.79;;
56593;SDS011;42474;51.660;5.824;2023-09-30T12:57:53;12.48;;;4.93;;
56593;SDS011;42474;51.660;5.824;2023-09-30T13:01:53;8.05;;;4.1;;
56593;SDS011;42474;51.660;5.824;2023-09-30T13:05:54;10.58;;;4.13;;
56593;SDS011;42474;51.660;5.824;2023-09-30T13:09:53;8.76;;;4.15;;
56593;SDS011;42474;51.660;5.824;2023-09-30T13:13:53;10.58;;;4.45;;
56593;SDS011;42474;51.660;5.824;2023-09-30T13:17:53;10.01;;;4.45;;
56593;SDS011;42474;51.660;5.824;2023-09-30T13:21:53;9.96;;;4.42;;
56593;SDS011;42474;51.660;5.824;2023-09-30T13:25:53;10.96;;;4.5;;
56593;SDS011;42474;51.660;5.824;2023-09-30T13:29:53;11.33;;;5.02;;
56593;SDS011;42474;51.660;5.824;2023-09-30T13:33:54;11.26;;;4.77;;
56593;SDS011;42474;51.660;5.824;2023-09-30T13:37:53;9.81;;;4.87;;
56593;SDS011;42474;51.660;5.824;2023-09-30T13:41:53;11.25;;;4.85;;
56593;SDS011;42474;51.660;5.824;2023-09-30T13:45:53;11.98;;;4.51;;
56593;SDS011;42474;51.660;5.824;2023-09-30T13:49:53;10.22;;;4.8;;
56593;SDS011;42474;51.660;5.824;2023-09-30T13:53:53;11.75;;;4.32;;
56593;SDS011;42474;51.660;5.824;2023-09-30T13:57:53;13.13;;;4.7;;
56593;SDS011;42474;51.660;5.824;2023-09-30T14:01:53;9.92;;;4.03;;
56593;SDS011;42474;51.660;5.824;2023-09-30T14:05:53;8.73;;;4.42;;
56593;SDS011;42474;51.660;5.824;2023-09-30T14:09:53;9.43;;;4.09;;
56593;SDS011;42474;51.660;5.824;2023-09-30T14:13:53;10.61;;;4.48;;
56593;SDS011;42474;51.660;5.824;2023-09-30T14:17:53;9.82;;;4.46;;
56593;SDS011;42474;51.660;5.824;2023-09-30T14:21:53;9.42;;;4.07;;
56593;SDS011;42474;51.660;5.824;2023-09-30T14:25:54;12.28;;;4.85;;
56593;SDS011;42474;51.660;5.824;2023-09-30T14:29:53;10.13;;;4.4;;
56593;SDS011;42474;51.660;5.824;2023-09-30T14:33:53;8.82;;;3.96;;
56593;SDS011;42474;51.660;5.824;2023-09-30T14:37:53;9.73;;;4.13;;
56593;SDS011;42474;51.660;5.824;2023-09-30T14:41:53;9.32;;;4.16;;
56593;SDS011;42474;51.660;5.824;2023-09-30T14:45:53;10.44;;;4.59;;
56593;SDS011;42474;51.660;5.824;2023-09-30T14:49:53;10.14;;;4.82;;
56593;SDS011;42474;51.660;5.824;2023-09-30T14:53:53;10.88;;;5.04;;
56593;SDS011;42474;51.660;5.824;2023-09-30T14:57:53;10.61;;;4.33;;
56593;SDS011;42474;51.660;5.824;2023-09-30T15:01:53;8.31;;;3.84;;
56593;SDS011;42474;51.660;5.824;2023-09-30T15:05:58;7.77;;;4.11;;
56593;SDS011;42474;51.660;5.824;2023-09-30T15:09:53;9.9;;;4.1;;
56593;SDS011;42474;51.660;5.824;2023-09-30T15:13:53;6.98;;;4.5;;
56593;SDS011;42474;51.660;5.824;2023-09-30T15:17:54;11.18;;;5.41;;
56593;SDS011;42474;51.660;5.824;2023-09-30T15:21:53;9.53;;;5.27;;
56593;SDS011;42474;51.660;5.824;2023-09-30T15:25:53;8.8;;;5.14;;
56593;SDS011;42474;51.660;5.824;2023-09-30T15:29:53;10.45;;;5;;
56593;SDS011;42474;51.660;5.824;2023-09-30T15:33:53;8.05;;;4.82;;
56593;SDS011;42474;51.660;5.824;2023-09-30T15:37:54;9.65;;;5.37;;
56593;SDS011;42474;51.660;5.824;2023-09-30T15:41:53;10.15;;;4.94;;
56593;SDS011;42474;51.660;5.824;2023-09-30T15:45:54;8.05;;;4.72;;
56593;SDS011;42474;51.660;5.824;2023-09-30T15:49:53;9.53;;;5.62;;
56593;SDS011;42474;51.660;5.824;2023-09-30T15:53:53;8.94;;;5.51;;
56593;SDS011;42474;51.660;5.824;2023-09-30T15:57:53;9.92;;;5.71;;
56593;SDS011;42474;51.660;5.824;2023-09-30T16:01:53;8.98;;;5.52;;
56593;SDS011;42474;51.660;5.824;2023-09-30T16:05:55;14.54;;;7.75;;
56593;SDS011;42474;51.660;5.824;2023-09-30T16:09:54;11.76;;;6.71;;
56593;SDS011;42474;51.660;5.824;2023-09-30T16:13:54;11.93;;;7.45;;
56593;SDS011;42474;51.660;5.824;2023-09-30T16:17:54;14.04;;;7.24;;
56593;SDS011;42474;51.660;5.824;2023-09-30T16:21:54;15.04;;;7.88;;
56593;SDS011;42474;51.660;5.824;2023-09-30T16:25:54;13.59;;;8.02;;
56593;SDS011;42474;51.660;5.824;2023-09-30T16:29:54;9.84;;;7.22;;
56593;SDS011;42474;51.660;5.824;2023-09-30T16:33:54;10.86;;;7.04;;
56593;SDS011;42474;51.660;5.824;2023-09-30T16:37:54;11.84;;;6.97;;
56593;SDS011;42474;51.660;5.824;2023-09-30T16:41:54;12.88;;;7.45;;
56593;SDS011;42474;51.660;5.824;2023-09-30T16:45:58;11.33;;;7.24;;
56593;SDS011;42474;51.660;5.824;2023-09-30T16:49:54;10.74;;;7.68;;
56593;SDS011;42474;51.660;5.824;2023-09-30T16:53:54;13.95;;;9.18;;
56593;SDS011;42474;51.660;5.824;2023-09-30T16:57:54;14.13;;;8.63;;
56593;SDS011;42474;51.660;5.824;2023-09-30T17:01:54;15.22;;;8.38;;
56593;SDS011;42474;51.660;5.824;2023-09-30T17:05:54;11.23;;;7.58;;
56593;SDS011;42474;51.660;5.824;2023-09-30T17:09:54;9.91;;;7.26;;
56593;SDS011;42474;51.660;5.824;2023-09-30T17:13:54;11.84;;;8.64;;
56593;SDS011;42474;51.660;5.824;2023-09-30T17:17:54;15.71;;;10.84;;
56593;SDS011;42474;51.660;5.824;2023-09-30T17:21:54;15.34;;;9.36;;
56593;SDS011;42474;51.660;5.824;2023-09-30T17:25:59;10.94;;;7.86;;
56593;SDS011;42474;51.660;5.824;2023-09-30T17:29:54;12.03;;;7.51;;
56593;SDS011;42474;51.660;5.824;2023-09-30T17:33:54;10.41;;;7.44;;
56593;SDS011;42474;51.660;5.824;2023-09-30T17:37:54;11.09;;;7.14;;
56593;SDS011;42474;51.660;5.824;2023-09-30T17:41:54;12.52;;;7.21;;
56593;SDS011;42474;51.660;5.824;2023-09-30T17:45:54;14;;;8.48;;
56593;SDS011;42474;51.660;5.824;2023-09-30T17:49:54;11.68;;;7.54;;
56593;SDS011;42474;51.660;5.824;2023-09-30T17:53:54;11.88;;;7.61;;
56593;SDS011;42474;51.660;5.824;2023-09-30T17:57:54;12.74;;;7.94;;
56593;SDS011;42474;51.660;5.824;2023-09-30T18:01:54;13.26;;;8.27;;
56593;SDS011;42474;51.660;5.824;2023-09-30T18:05:54;13;;;8.87;;
56593;SDS011;42474;51.660;5.824;2023-09-30T18:09:54;41.7;;;28.34;;
56593;SDS011;42474;51.660;5.824;2023-09-30T18:13:54;18.52;;;12.54;;
56593;SDS011;42474;51.660;5.824;2023-09-30T18:17:54;15.16;;;9.83;;
56593;SDS011;42474;51.660;5.824;2023-09-30T18:21:54;15.63;;;9.31;;
56593;SDS011;42474;51.660;5.824;2023-09-30T18:25:54;12.99;;;9.17;;
56593;SDS011;42474;51.660;5.824;2023-09-30T18:29:54;13.34;;;9.95;;
56593;SDS011;42474;51.660;5.824;2023-09-30T18:33:54;15.13;;;9.54;;
56593;SDS011;42474;51.660;5.824;2023-09-30T18:37:54;14.64;;;10.07;;
56593;SDS011;42474;51.660;5.824;2023-09-30T18:41:54;17.08;;;10.54;;
56593;SDS011;42474;51.660;5.824;2023-09-30T18:45:54;14.53;;;10.09;;
56593;SDS011;42474;51.660;5.824;2023-09-30T18:49:54;14.52;;;11.08;;
56593;SDS011;42474;51.660;5.824;2023-09-30T18:53:54;17.9;;;11.43;;
56593;SDS011;42474;51.660;5.824;2023-09-30T18:57:54;15.23;;;11.24;;
56593;SDS011;42474;51.660;5.824;2023-09-30T19:01:54;13.95;;;10.69;;
56593;SDS011;42474;51.660;5.824;2023-09-30T19:05:54;17.64;;;11.27;;
56593;SDS011;42474;51.660;5.824;2023-09-30T19:09:54;17.95;;;11.02;;
56593;SDS011;42474;51.660;5.824;2023-09-30T19:13:54;15.53;;;11.23;;
56593;SDS011;42474;51.660;5.824;2023-09-30T19:17:54;16.92;;;12.48;;
56593;SDS011;42474;51.660;5.824;2023-09-30T19:21:54;17.21;;;11.78;;
56593;SDS011;42474;51.660;5.824;2023-09-30T19:25:54;19.68;;;13.09;;
56593;SDS011;42474;51.660;5.824;2023-09-30T19:29:55;20.49;;;13.42;;
56593;SDS011;42474;51.660;5.824;2023-09-30T19:33:54;22.38;;;15.77;;
56593;SDS011;42474;51.660;5.824;2023-09-30T19:37:54;42.53;;;26.22;;
56593;SDS011;42474;51.660;5.824;2023-09-30T19:41:54;22.04;;;13.9;;
56593;SDS011;42474;51.660;5.824;2023-09-30T19:45:57;17.25;;;12.19;;
56593;SDS011;42474;51.660;5.824;2023-09-30T19:49:54;16.58;;;12.17;;
56593;SDS011;42474;51.660;5.824;2023-09-30T19:53:54;18.43;;;11.75;;
56593;SDS011;42474;51.660;5.824;2023-09-30T19:57:54;15.58;;;11.83;;
56593;SDS011;42474;51.660;5.824;2023-09-30T20:01:54;17.98;;;11.93;;
56593;SDS011;42474;51.660;5.824;2023-09-30T20:05:54;26.24;;;18.74;;
56593;SDS011;42474;51.660;5.824;2023-09-30T20:09:54;102.16;;;59.34;;
56593;SDS011;42474;51.660;5.824;2023-09-30T20:13:55;65.7;;;41.06;;
56593;SDS011;42474;51.660;5.824;2023-09-30T20:17:54;40.26;;;26.7;;
56593;SDS011;42474;51.660;5.824;2023-09-30T20:21:54;20.78;;;14.98;;
56593;SDS011;42474;51.660;5.824;2023-09-30T20:25:54;18.89;;;12.37;;
56593;SDS011;42474;51.660;5.824;2023-09-30T20:29:54;19.12;;;13.27;;
56593;SDS011;42474;51.660;5.824;2023-09-30T20:33:54;18.8;;;13.55;;
56593;SDS011;42474;51.660;5.824;2023-09-30T20:37:54;17.04;;;13.17;;
56593;SDS011;42474;51.660;5.824;2023-09-30T20:41:54;17.09;;;12.11;;
56593;SDS011;42474;51.660;5.824;2023-09-30T20:45:54;20.65;;;13.36;;
56593;SDS011;42474;51.660;5.824;2023-09-30T20:49:54;17.91;;;13.72;;
56593;SDS011;42474;51.660;5.824;2023-09-30T20:53:54;17.29;;;13.66;;
56593;SDS011;42474;51.660;5.824;2023-09-30T20:57:55;19.74;;;13.51;;
56593;SDS011;42474;51.660;5.824;2023-09-30T21:01:54;17.91;;;13.92;;
56593;SDS011;42474;51.660;5.824;2023-09-30T21:05:54;19.34;;;14.26;;
56593;SDS011;42474;51.660;5.824;2023-09-30T21:09:54;21.44;;;15.91;;
56593;SDS011;42474;51.660;5.824;2023-09-30T21:13:54;21.33;;;15.78;;
56593;SDS011;42474;51.660;5.824;2023-09-30T21:17:54;19.81;;;16.52;;
56593;SDS011;42474;51.660;5.824;2023-09-30T21:21:54;21.04;;;16.23;;
56593;SDS011;42474;51.660;5.824;2023-09-30T21:25:54;20.3;;;15.62;;
56593;SDS011;42474;51.660;5.824;2023-09-30T21:29:54;22.33;;;16.83;;
56593;SDS011;42474;51.660;5.824;2023-09-30T21:33:54;24.33;;;16.94;;
56593;SDS011;42474;51.660;5.824;2023-09-30T21:37:54;22.17;;;16.61;;
56593;SDS011;42474;51.660;5.824;2023-09-30T21:41:54;24.94;;;16.83;;
56593;SDS011;42474;51.660;5.824;2023-09-30T21:45:54;19.32;;;15.36;;
56593;SDS011;42474;51.660;5.824;2023-09-30T21:49:54;24.3;;;17.5;;
56593;SDS011;42474;51.660;5.824;2023-09-30T21:53:54;26.88;;;19.69;;
56593;SDS011;42474;51.660;5.824;2023-09-30T21:57:54;25.47;;;19.04;;
56593;SDS011;42474;51.660;5.824;2023-09-30T22:01:54;26.28;;;20.08;;
56593;SDS011;42474;51.660;5.824;2023-09-30T22:05:54;29.08;;;21.91;;
56593;SDS011;42474;51.660;5.824;2023-09-30T22:09:54;25.23;;;20.82;;
56593;SDS011;42474;51.660;5.824;2023-09-30T22:13:54;27.59;;;21.12;;
56593;SDS011;42474;51.660;5.824;2023-09-30T22:17:54;24.33;;;20.14;;
56593;SDS011;42474;51.660;5.824;2023-09-30T22:21:54;27.65;;;20.04;;
56593;SDS011;42474;51.660;5.824;2023-09-30T22:25:54;25.61;;;20.55;;
56593;SDS011;42474;51.660;5.824;2023-09-30T22:29:54;24.32;;;19.82;;
56593;SDS011;42474;51.660;5.824;2023-09-30T22:33:54;27.97;;;20.81;;
56593;SDS011;42474;51.660;5.824;2023-09-30T22:37:55;25.54;;;19.82;;
56593;SDS011;42474;51.660;5.824;2023-09-30T22:41:54;25.51;;;18.76;;
56593;SDS011;42474;51.660;5.824;2023-09-30T22:45:54;26.59;;;18.98;;
56593;SDS011;42474;51.660;5.824;2023-09-30T22:49:55;21.82;;;16.74;;
56593;SDS011;42474;51.660;5.824;2023-09-30T22:53:54;22.22;;;16.49;;
56593;SDS011;42474;51.660;5.824;2023-09-30T22:57:54;22.04;;;17.15;;
56593;SDS011;42474;51.660;5.824;2023-09-30T23:01:54;23.45;;;17.53;;
56593;SDS011;42474;51.660;5.824;2023-09-30T23:05:54;25.76;;;17.9;;
56593;SDS011;42474;51.660;5.824;2023-09-30T23:09:54;21;;;15.97;;
56593;SDS011;42474;51.660;5.824;2023-09-30T23:13:54;23.86;;;17.02;;
56593;SDS011;42474;51.660;5.824;2023-09-30T23:17:54;21.31;;;17.16;;
56593;SDS011;42474;51.660;5.824;2023-09-30T23:21:54;24.52;;;17.23;;
56593;SDS011;42474;51.660;5.824;2023-09-30T23:25:54;20.87;;;17.09;;
56593;SDS011;42474;51.660;5.824;2023-09-30T23:29:54;23.55;;;17.37;;
56593;SDS011;42474;51.660;5.824;2023-09-30T23:33:54;21.43;;;15.88;;
56593;SDS011;42474;51.660;5.824;2023-09-30T23:37:55;21.22;;;17.56;;
56593;SDS011;42474;51.660;5.824;2023-09-30T23:41:54;22.31;;;16.95;;
56593;SDS011;42474;51.660;5.824;2023-09-30T23:45:54;21.29;;;17.52;;
56593;SDS011;42474;51.660;5.824;2023-09-30T23:49:54;21.08;;;16.46;;
56593;SDS011;42474;51.660;5.824;2023-09-30T23:53:54;24.19;;;18.06;;
56593;SDS011;42474;51.660;5.824;2023-09-30T23:57:54;23.27;;;17.23;;
